createdAt,value
2022-11-05T00:00:36.088Z,5.35
2022-11-05T00:03:21.783Z,4.91
2022-11-05T00:06:10.655Z,5.51
2022-11-05T00:08:57.792Z,5.14
2022-11-05T00:11:44.619Z,5.49
2022-11-05T00:14:29.956Z,5.42
2022-11-05T00:16:56.758Z,5.72
2022-11-05T00:19:23.426Z,5.94
2022-11-05T00:22:12.046Z,5.91
2022-11-05T00:24:57.152Z,6.75
2022-11-05T00:27:23.922Z,6.60
2022-11-05T00:29:50.663Z,5.97
2022-11-05T00:32:17.466Z,5.90
2022-11-05T00:34:44.619Z,5.93
2022-11-05T00:37:11.334Z,5.48
2022-11-05T00:39:38.353Z,5.71
2022-11-05T00:42:23.668Z,5.99
2022-11-05T00:45:01.024Z,6.19
2022-11-05T00:47:47.131Z,5.61
2022-11-05T00:50:14.778Z,5.91
2022-11-05T00:52:57.092Z,6.01
2022-11-05T00:55:28.596Z,6.26
2022-11-05T00:57:57.532Z,5.81
2022-11-05T01:00:28.055Z,5.20
2022-11-05T01:02:59.202Z,5.43
2022-11-05T01:05:26.444Z,5.18
2022-11-05T01:07:53.347Z,5.48
2022-11-05T01:10:21.473Z,5.19
2022-11-05T01:12:48.633Z,5.16
2022-11-05T01:15:17.061Z,5.13
2022-11-05T01:17:46.914Z,5.05
2022-11-05T01:20:14.932Z,5.00
2022-11-05T01:22:41.585Z,4.97
2022-11-05T01:25:11.224Z,4.82
2022-11-05T01:27:38.741Z,4.99
2022-11-05T01:30:08.155Z,5.13
2022-11-05T01:32:37.031Z,4.78
2022-11-05T01:35:06.360Z,4.77
2022-11-05T01:37:35.151Z,4.64
2022-11-05T01:40:02.506Z,5.05
2022-11-05T01:42:32.741Z,4.95
2022-11-05T01:45:01.207Z,4.98
2022-11-05T01:48:06.711Z,4.99
2022-11-05T01:50:43.274Z,4.96
2022-11-05T01:53:21.792Z,4.75
2022-11-05T01:56:23.683Z,5.05
2022-11-05T01:59:03.453Z,4.92
2022-11-05T02:01:30.384Z,4.68
2022-11-05T02:04:02.841Z,4.75
2022-11-05T02:06:32.620Z,4.79
2022-11-05T02:09:08.874Z,4.40
2022-11-05T02:11:35.664Z,4.50
2022-11-05T02:14:02.693Z,4.75
2022-11-05T02:16:35.446Z,5.00
2022-11-05T02:19:41.002Z,4.82
2022-11-05T02:22:57.231Z,4.62
2022-11-05T02:26:04.100Z,4.98
2022-11-05T02:28:51.932Z,5.09
2022-11-05T02:31:35.026Z,5.37
2022-11-05T02:34:29.227Z,5.51
2022-11-05T02:37:34.443Z,5.67
2022-11-05T02:40:16.797Z,5.57
2022-11-05T02:42:58.614Z,6.49
2022-11-05T02:45:40.304Z,6.35
2022-11-05T02:49:05.775Z,6.71
2022-11-05T02:51:39.496Z,5.88
2022-11-05T02:54:25.201Z,5.75
2022-11-05T02:56:54.941Z,5.79
2022-11-05T02:59:21.662Z,5.43
2022-11-05T03:01:50.397Z,5.42
2022-11-05T03:04:21.334Z,5.13
2022-11-05T03:07:39.415Z,4.37
2022-11-05T03:10:25.323Z,4.31
2022-11-05T03:13:16.877Z,4.30
2022-11-05T03:15:58.293Z,4.14
2022-11-05T03:18:58.475Z,4.19
2022-11-05T03:21:36.058Z,4.93
2022-11-05T03:24:19.028Z,4.11
2022-11-05T03:27:03.972Z,3.89
2022-11-05T03:29:38.439Z,3.81
2022-11-05T03:32:08.089Z,3.65
2022-11-05T03:34:52.986Z,3.80
2022-11-05T03:37:21.482Z,3.73
2022-11-05T03:39:55.946Z,3.57
2022-11-05T03:42:28.770Z,3.73
2022-11-05T03:45:00.654Z,3.92
2022-11-05T03:47:38.334Z,3.91
2022-11-05T03:50:09.874Z,4.40
2022-11-05T03:52:53.741Z,4.17
2022-11-05T03:55:31.136Z,4.54
2022-11-05T03:57:59.058Z,5.07
2022-11-05T04:00:25.957Z,5.09
2022-11-05T04:02:52.834Z,5.17
2022-11-05T04:05:19.781Z,4.95
2022-11-05T04:08:07.673Z,5.66
2022-11-05T04:10:57.132Z,5.36
2022-11-05T04:13:26.723Z,5.14
2022-11-05T04:16:14.919Z,4.65
2022-11-05T04:18:43.060Z,4.95
2022-11-05T04:21:30.180Z,5.37
2022-11-05T04:24:09.919Z,5.29
2022-11-05T04:26:43.949Z,5.33
2022-11-05T04:29:29.668Z,5.37
2022-11-05T04:31:57.257Z,5.19
2022-11-05T04:34:24.097Z,4.46
2022-11-05T04:36:52.144Z,5.33
2022-11-05T04:39:20.520Z,4.94
2022-11-05T04:41:50.222Z,5.00
2022-11-05T04:44:17.220Z,4.90
2022-11-05T04:46:44.380Z,5.35
2022-11-05T04:49:11.089Z,6.08
2022-11-05T04:51:37.792Z,5.04
2022-11-05T04:54:04.617Z,5.62
2022-11-05T04:56:31.552Z,5.17
2022-11-05T04:58:58.326Z,4.90
2022-11-05T05:01:25.744Z,5.14
2022-11-05T05:03:54.291Z,5.51
2022-11-05T05:06:22.514Z,5.37
2022-11-05T05:08:51.431Z,5.39
2022-11-05T05:11:21.520Z,5.30
2022-11-05T05:13:49.900Z,6.30
2022-11-05T05:16:23.163Z,6.10
2022-11-05T05:18:51.046Z,5.73
2022-11-05T05:21:38.550Z,5.85
2022-11-05T05:24:15.866Z,5.34
2022-11-05T05:26:50.926Z,5.01
2022-11-05T05:29:18.904Z,4.57
2022-11-05T05:31:45.681Z,4.90
2022-11-05T05:34:14.006Z,4.60
2022-11-05T05:36:40.752Z,4.06
2022-11-05T05:39:11.037Z,4.68
2022-11-05T05:41:38.463Z,4.19
2022-11-05T05:44:06.741Z,4.41
2022-11-05T05:46:33.836Z,4.57
2022-11-05T05:49:00.821Z,5.03
2022-11-05T05:51:27.723Z,4.91
2022-11-05T05:53:55.194Z,4.98
2022-11-05T05:56:22.152Z,4.61
2022-11-05T05:58:48.927Z,4.84
2022-11-05T06:01:19.695Z,4.92
2022-11-05T06:03:48.476Z,4.60
2022-11-05T06:06:21.104Z,4.90
2022-11-05T06:08:48.882Z,4.59
2022-11-05T06:11:15.766Z,4.55
2022-11-05T06:13:42.657Z,3.96
2022-11-05T06:16:10.431Z,3.34
2022-11-05T06:18:37.945Z,4.02
2022-11-05T06:21:08.059Z,4.55
2022-11-05T06:23:37.058Z,5.10
2022-11-05T06:26:07.450Z,5.27
2022-11-05T06:28:34.493Z,5.20
2022-11-05T06:31:01.825Z,5.47
2022-11-05T06:33:29.288Z,4.50
2022-11-05T06:35:59.739Z,5.34
2022-11-05T06:38:26.602Z,5.95
2022-11-05T06:40:53.279Z,5.06
2022-11-05T06:43:20.195Z,4.74
2022-11-05T06:45:46.903Z,4.89
2022-11-05T06:48:13.622Z,4.55
2022-11-05T06:50:45.214Z,5.72
2022-11-05T06:53:12.945Z,5.89
2022-11-05T06:55:40.272Z,6.36
2022-11-05T06:58:07.390Z,5.91
2022-11-05T07:00:34.369Z,4.95
2022-11-05T07:03:10.467Z,5.35
2022-11-05T07:05:42.986Z,5.92
2022-11-05T07:08:09.846Z,4.92
2022-11-05T07:10:36.534Z,4.36
2022-11-05T07:13:07.793Z,5.15
2022-11-05T07:15:36.485Z,4.69
2022-11-05T07:18:03.925Z,4.59
2022-11-05T07:20:33.933Z,4.55
2022-11-05T07:23:11.341Z,5.59
2022-11-05T07:25:39.118Z,5.22
2022-11-05T07:28:06.414Z,5.80
2022-11-05T07:30:34.612Z,5.19
2022-11-05T07:33:02.414Z,6.33
2022-11-05T07:35:29.397Z,6.50
2022-11-05T07:37:56.410Z,6.66
2022-11-05T07:40:26.679Z,7.25
2022-11-05T07:42:59.654Z,7.56
2022-11-05T07:45:29.349Z,7.32
2022-11-05T07:48:02.449Z,6.12
2022-11-05T07:50:32.481Z,5.95
2022-11-05T07:53:09.880Z,6.63
2022-11-05T07:55:40.302Z,5.87
2022-11-05T07:58:07.355Z,6.63
2022-11-05T08:00:34.485Z,5.43
2022-11-05T08:03:18.764Z,4.83
2022-11-05T08:05:47.670Z,4.06
2022-11-05T08:08:17.577Z,4.03
2022-11-05T08:10:44.875Z,4.46
2022-11-05T08:13:15.062Z,4.06
2022-11-05T08:15:43.031Z,4.42
2022-11-05T08:18:17.959Z,4.83
2022-11-05T08:20:46.735Z,4.39
2022-11-05T08:23:14.407Z,4.00
2022-11-05T08:25:41.951Z,4.77
2022-11-05T08:28:12.801Z,5.03
2022-11-05T08:30:40.232Z,5.36
2022-11-05T08:33:11.819Z,4.52
2022-11-05T08:35:40.011Z,5.12
2022-11-05T08:38:10.460Z,5.43
2022-11-05T08:40:37.963Z,5.79
2022-11-05T08:43:07.592Z,6.28
2022-11-05T08:45:38.355Z,6.28
2022-11-05T08:48:16.746Z,6.46
2022-11-05T08:50:45.553Z,6.48
2022-11-05T08:53:13.476Z,5.61
2022-11-05T08:55:40.765Z,5.23
2022-11-05T08:58:17.716Z,5.62
2022-11-05T09:00:49.800Z,5.44
2022-11-05T09:03:17.818Z,6.09
2022-11-05T09:05:44.808Z,6.22
2022-11-05T09:08:15.098Z,7.59
2022-11-05T09:10:42.973Z,7.69
2022-11-05T09:13:16.590Z,8.24
2022-11-05T09:15:46.597Z,7.73
2022-11-05T09:18:14.900Z,7.48
2022-11-05T09:20:42.931Z,7.13
2022-11-05T09:23:12.110Z,7.40
2022-11-05T09:25:39.166Z,7.96
2022-11-05T09:28:21.473Z,7.43
2022-11-05T09:30:52.116Z,7.01
2022-11-05T09:33:22.816Z,6.85
2022-11-05T09:35:51.647Z,7.79
2022-11-05T09:38:18.542Z,8.21
2022-11-05T09:41:06.133Z,8.45
2022-11-05T09:43:40.766Z,9.01
2022-11-05T09:46:26.644Z,8.56
2022-11-05T09:49:07.804Z,7.98
2022-11-05T09:51:36.699Z,7.84
2022-11-05T09:54:05.475Z,8.88
2022-11-05T09:56:37.144Z,8.98
2022-11-05T09:59:19.529Z,9.55
2022-11-05T10:01:47.816Z,8.77
2022-11-05T10:04:26.924Z,9.38
2022-11-05T10:07:05.315Z,9.39
2022-11-05T10:09:45.285Z,9.76
2022-11-05T10:12:46.791Z,10.51
2022-11-05T10:15:27.029Z,10.52
2022-11-05T10:18:24.530Z,10.07
2022-11-05T10:20:51.361Z,10.38
2022-11-05T10:23:21.736Z,10.37
2022-11-05T10:26:08.019Z,10.75
2022-11-05T10:28:36.308Z,10.56
2022-11-05T10:31:14.040Z,10.04
2022-11-05T10:33:47.937Z,9.20
2022-11-05T10:36:36.544Z,8.68
2022-11-05T10:39:19.551Z,8.09
2022-11-05T10:42:32.293Z,8.49
2022-11-05T10:45:13.943Z,8.31
2022-11-05T10:48:16.581Z,7.97
2022-11-05T10:50:44.577Z,8.36
2022-11-05T10:53:15.235Z,7.83
2022-11-05T10:55:46.631Z,8.75
2022-11-05T10:58:13.226Z,8.84
2022-11-05T11:00:40.736Z,8.40
2022-11-05T11:03:29.978Z,7.80
2022-11-05T11:06:07.622Z,7.64
2022-11-05T11:08:36.745Z,7.33
2022-11-05T11:11:10.112Z,8.00
2022-11-05T11:14:02.560Z,8.30
2022-11-05T11:16:37.685Z,8.56
2022-11-05T11:19:21.741Z,9.19
2022-11-05T11:22:12.632Z,9.12
2022-11-05T11:24:53.783Z,8.93
2022-11-05T11:27:34.176Z,9.68
2022-11-05T11:30:03.881Z,9.25
2022-11-05T11:32:39.830Z,8.78
2022-11-05T11:35:18.954Z,9.34
2022-11-05T11:37:46.709Z,9.65
2022-11-05T11:40:19.675Z,9.27
2022-11-05T11:42:52.367Z,8.72
2022-11-05T11:45:28.685Z,8.95
2022-11-05T11:47:57.822Z,9.00
2022-11-05T11:50:43.686Z,8.45
2022-11-05T11:53:26.979Z,8.56
2022-11-05T11:56:13.908Z,8.81
2022-11-05T11:58:55.899Z,9.11
2022-11-05T12:01:37.799Z,9.07
2022-11-05T12:04:16.874Z,9.40
2022-11-05T12:06:55.552Z,8.16
2022-11-05T12:09:57.840Z,8.11
2022-11-05T12:12:51.526Z,8.37
2022-11-05T12:15:59.597Z,8.72
2022-11-05T12:18:47.669Z,8.99
2022-11-05T12:21:53.000Z,8.86
2022-11-05T12:25:08.175Z,9.37
2022-11-05T12:28:02.423Z,9.45
2022-11-05T12:30:56.858Z,9.20
2022-11-05T12:34:08.261Z,9.11
2022-11-05T12:37:12.796Z,9.48
2022-11-05T12:40:09.398Z,9.90
2022-11-05T12:43:11.913Z,9.26
2022-11-05T12:46:05.540Z,9.69
2022-11-05T12:49:02.386Z,10.03
2022-11-05T12:51:53.855Z,10.17
2022-11-05T12:54:35.557Z,9.57
2022-11-05T12:57:04.071Z,9.23
2022-11-05T12:59:49.009Z,8.63
2022-11-05T13:02:46.355Z,8.72
2022-11-05T13:05:18.778Z,8.72
2022-11-05T13:07:59.655Z,8.30
2022-11-05T13:10:54.669Z,8.77
2022-11-05T13:13:33.735Z,8.74
2022-11-05T13:16:16.901Z,8.25
2022-11-05T13:18:52.424Z,8.34
2022-11-05T13:21:24.124Z,8.45
2022-11-05T13:24:36.210Z,8.70
2022-11-05T13:27:15.792Z,9.03
2022-11-05T13:29:53.041Z,9.11
2022-11-05T13:32:28.050Z,9.08
2022-11-05T13:35:02.153Z,9.78
2022-11-05T13:37:53.572Z,9.89
2022-11-05T13:40:29.143Z,9.35
2022-11-05T13:43:14.662Z,9.44
2022-11-05T13:46:06.411Z,8.72
2022-11-05T13:49:18.691Z,8.63
2022-11-05T13:51:52.512Z,8.86
2022-11-05T13:54:50.028Z,8.14
2022-11-05T13:57:53.780Z,8.01
2022-11-05T14:00:24.347Z,7.62
2022-11-05T14:03:05.805Z,7.73
2022-11-05T14:05:40.104Z,7.37
2022-11-05T14:08:19.989Z,7.87
2022-11-05T14:11:06.579Z,8.28
2022-11-05T14:13:43.847Z,7.66
2022-11-05T14:16:19.849Z,8.17
2022-11-05T14:19:13.838Z,9.12
2022-11-05T14:21:57.192Z,9.62
2022-11-05T14:24:27.003Z,9.51
2022-11-05T14:27:02.501Z,9.23
2022-11-05T14:29:46.979Z,9.34
2022-11-05T14:32:19.898Z,8.95
2022-11-05T14:35:17.672Z,9.34
2022-11-05T14:37:59.155Z,9.13
2022-11-05T14:40:38.088Z,9.19
2022-11-05T14:43:14.232Z,9.56
2022-11-05T14:46:08.300Z,8.99
2022-11-05T14:48:41.253Z,9.42
2022-11-05T14:51:31.749Z,9.82
2022-11-05T14:54:05.508Z,9.58
2022-11-05T14:57:02.541Z,8.65
2022-11-05T14:59:31.304Z,9.11
2022-11-05T15:02:00.740Z,8.85
2022-11-05T15:04:36.151Z,9.01
2022-11-05T15:07:02.930Z,8.70
2022-11-05T15:09:44.726Z,8.57
2022-11-05T15:12:24.226Z,8.27
2022-11-05T15:14:59.561Z,8.35
2022-11-05T15:17:51.166Z,8.28
2022-11-05T15:20:23.874Z,8.75
2022-11-05T15:23:00.479Z,9.01
2022-11-05T15:25:54.802Z,8.91
2022-11-05T15:28:38.491Z,8.87
2022-11-05T15:31:21.130Z,9.14
2022-11-05T15:33:48.201Z,9.02
2022-11-05T15:36:23.572Z,9.25
2022-11-05T15:39:15.067Z,8.98
2022-11-05T15:41:38.343Z,9.28
2022-11-05T15:44:05.151Z,8.91
2022-11-05T15:46:32.094Z,8.24
2022-11-05T15:49:06.747Z,7.91
2022-11-05T15:51:35.518Z,7.67
2022-11-05T15:56:56.605Z,7.59
2022-11-05T15:59:26.267Z,7.22
2022-11-05T16:02:31.919Z,8.78
2022-11-05T16:05:00.202Z,8.09
2022-11-05T16:07:28.188Z,8.07
2022-11-05T16:10:00.549Z,9.01
2022-11-05T16:12:36.710Z,9.49
2022-11-05T16:15:20.539Z,8.81
2022-11-05T16:17:59.650Z,9.24
2022-11-05T16:20:35.740Z,10.11
2022-11-05T16:23:23.567Z,10.40
2022-11-05T16:25:51.089Z,10.32
2022-11-05T16:28:29.248Z,10.00
2022-11-05T16:31:04.620Z,10.23
2022-11-05T16:33:44.727Z,10.22
2022-11-05T16:36:12.047Z,10.39
2022-11-05T16:38:38.923Z,10.46
2022-11-05T16:41:05.850Z,10.51
2022-11-05T16:43:33.571Z,10.39
2022-11-05T16:46:01.700Z,10.36
2022-11-05T16:48:28.759Z,10.26
2022-11-05T16:50:55.570Z,10.23
2022-11-05T16:53:22.379Z,9.67
2022-11-05T16:55:49.778Z,10.08
2022-11-05T16:58:25.831Z,9.61
2022-11-05T17:01:07.788Z,9.56
2022-11-05T17:03:34.644Z,9.94
2022-11-05T17:06:01.489Z,10.12
2022-11-05T17:08:29.537Z,10.17
2022-11-05T17:10:56.382Z,10.03
2022-11-05T17:13:23.177Z,8.45
2022-11-05T17:15:51.167Z,8.95
2022-11-05T17:18:19.332Z,8.72
2022-11-05T17:20:53.142Z,8.61
2022-11-05T17:23:22.986Z,9.14
2022-11-05T17:25:54.432Z,8.98
2022-11-05T17:28:22.065Z,8.92
2022-11-05T17:30:52.762Z,8.62
2022-11-05T17:33:22.629Z,8.52
2022-11-05T17:35:51.702Z,9.01
2022-11-05T17:38:19.194Z,9.06
2022-11-05T17:40:46.125Z,9.19
2022-11-05T17:43:13.175Z,9.47
2022-11-05T17:45:57.545Z,9.21
2022-11-05T17:48:26.848Z,8.99
2022-11-05T17:50:53.537Z,9.28
2022-11-05T17:53:20.557Z,9.36
2022-11-05T17:55:48.215Z,9.44
2022-11-05T17:58:15.600Z,9.10
2022-11-05T18:00:44.187Z,9.37
2022-11-05T18:03:12.847Z,9.29
2022-11-05T18:05:41.204Z,9.28
2022-11-05T18:08:09.516Z,9.33
2022-11-05T18:10:37.888Z,9.04
2022-11-05T18:13:05.504Z,9.09
2022-11-05T18:15:32.533Z,8.63
2022-11-05T18:17:59.237Z,8.84
2022-11-05T18:20:26.009Z,8.71
2022-11-05T18:22:52.894Z,8.89
2022-11-05T18:25:19.726Z,8.95
2022-11-05T18:27:46.505Z,8.88
2022-11-05T18:30:15.460Z,8.87
2022-11-05T18:32:44.483Z,8.78
2022-11-05T18:35:13.257Z,8.46
2022-11-05T18:37:40.685Z,7.94
2022-11-05T18:40:08.651Z,8.17
2022-11-05T18:42:35.445Z,8.30
2022-11-05T18:45:02.187Z,8.22
2022-11-05T18:47:29.038Z,8.44
2022-11-05T18:49:55.752Z,8.28
2022-11-05T18:52:22.875Z,7.83
2022-11-05T18:54:49.588Z,8.16
2022-11-05T18:57:16.283Z,8.28
2022-11-05T18:59:46.640Z,8.21
2022-11-05T19:02:14.669Z,8.01
2022-11-05T19:05:00.345Z,8.06
2022-11-05T19:07:28.925Z,7.59
2022-11-05T19:09:55.726Z,7.24
2022-11-05T19:12:22.450Z,7.32
2022-11-05T19:14:49.125Z,7.35
2022-11-05T19:17:15.841Z,7.49
2022-11-05T19:19:42.546Z,7.71
2022-11-05T19:22:10.230Z,7.78
2022-11-05T19:24:36.997Z,7.64
2022-11-05T19:27:04.123Z,7.62
2022-11-05T19:29:30.915Z,7.14
2022-11-05T19:31:57.675Z,7.19
2022-11-05T19:34:24.421Z,7.46
2022-11-05T19:36:51.178Z,7.55
2022-11-05T19:39:18.232Z,7.51
2022-11-05T19:41:44.899Z,7.44
2022-11-05T19:44:11.659Z,7.53
2022-11-05T19:46:38.692Z,7.58
2022-11-05T19:49:05.445Z,7.48
2022-11-05T19:51:33.023Z,7.39
2022-11-05T19:54:01.814Z,6.91
2022-11-05T19:56:32.570Z,6.85
2022-11-05T19:59:00.632Z,6.95
2022-11-05T20:01:29.114Z,7.07
2022-11-05T20:03:57.857Z,7.31
2022-11-05T20:06:31.792Z,7.63
2022-11-05T20:11:54.404Z,8.00
2022-11-05T20:14:21.918Z,7.81
2022-11-05T20:16:49.788Z,7.67
2022-11-05T20:19:19.624Z,7.58
2022-11-05T20:21:47.022Z,7.66
2022-11-05T20:24:23.698Z,7.43
2022-11-05T20:26:52.509Z,7.09
2022-11-05T20:29:19.300Z,7.22
2022-11-05T20:31:46.325Z,6.94
2022-11-05T20:34:13.111Z,7.15
2022-11-05T20:36:39.938Z,6.81
2022-11-05T20:39:06.988Z,6.60
2022-11-05T20:41:33.784Z,6.49
2022-11-05T20:44:00.468Z,6.72
2022-11-05T20:46:27.413Z,7.08
2022-11-05T20:48:54.439Z,7.04
2022-11-05T20:51:24.297Z,7.15
2022-11-05T20:53:59.825Z,6.75
2022-11-05T20:56:32.879Z,7.03
2022-11-05T20:59:00.469Z,6.69
2022-11-05T21:01:30.307Z,6.78
2022-11-05T21:03:57.800Z,6.86
2022-11-05T21:06:24.563Z,6.71
2022-11-05T21:08:52.460Z,6.60
2022-11-05T21:11:20.312Z,6.78
2022-11-05T21:13:47.700Z,6.81
2022-11-05T21:16:18.700Z,6.51
2022-11-05T21:18:46.516Z,6.78
2022-11-05T21:21:19.947Z,6.72
2022-11-05T21:23:47.302Z,6.61
2022-11-05T21:26:16.717Z,6.47
2022-11-05T21:28:43.905Z,6.64
2022-11-05T21:31:10.952Z,6.77
2022-11-05T21:33:38.076Z,6.88
2022-11-05T21:36:11.554Z,6.61
2022-11-05T21:38:39.437Z,6.44
2022-11-05T21:41:07.175Z,6.34
2022-11-05T21:43:34.524Z,6.58
2022-11-05T21:46:02.943Z,6.50
2022-11-05T21:48:30.545Z,6.48
2022-11-05T21:51:15.774Z,6.88
2022-11-05T21:54:01.174Z,6.95
2022-11-05T21:56:47.609Z,7.04
2022-11-05T21:59:38.980Z,7.18
2022-11-05T22:02:07.466Z,7.27
2022-11-05T22:04:37.850Z,7.44
2022-11-05T22:07:06.730Z,7.28
2022-11-05T22:09:34.122Z,7.45
2022-11-05T22:12:01.507Z,7.42
2022-11-05T22:14:28.433Z,7.64
2022-11-05T22:16:55.758Z,7.70
2022-11-05T22:19:23.358Z,7.40
2022-11-05T22:21:50.247Z,7.54
2022-11-05T22:24:17.712Z,7.65
2022-11-05T22:26:45.300Z,7.55
2022-11-05T22:29:12.863Z,7.56
2022-11-05T22:31:39.932Z,7.60
2022-11-05T22:34:07.566Z,7.72
2022-11-05T22:36:35.574Z,7.70
2022-11-05T22:39:02.712Z,7.87
2022-11-05T22:41:29.489Z,7.76
2022-11-05T22:43:56.773Z,7.72
2022-11-05T22:46:26.351Z,7.73
2022-11-05T22:48:53.955Z,7.81
2022-11-05T22:51:25.659Z,7.89
2022-11-05T22:53:54.708Z,6.87
2022-11-05T22:56:25.299Z,7.04
2022-11-05T22:58:52.372Z,7.25
2022-11-05T23:01:21.131Z,7.05
2022-11-05T23:03:50.148Z,6.57
2022-11-05T23:06:50.033Z,7.00
2022-11-05T23:09:42.882Z,7.30
2022-11-05T23:12:26.484Z,6.93
2022-11-05T23:14:55.387Z,7.17
2022-11-05T23:17:40.747Z,7.03
2022-11-05T23:20:35.077Z,7.29
2022-11-05T23:23:20.302Z,7.55
2022-11-05T23:25:47.414Z,7.42
2022-11-05T23:28:14.759Z,7.41
2022-11-05T23:31:04.260Z,7.25
2022-11-05T23:33:35.787Z,7.26
2022-11-05T23:36:38.240Z,7.32
2022-11-05T23:39:04.942Z,7.21
2022-11-05T23:41:50.433Z,7.18
2022-11-05T23:44:36.526Z,7.23
2022-11-05T23:47:21.896Z,6.88
2022-11-05T23:49:48.610Z,7.15
2022-11-05T23:52:15.261Z,7.14
2022-11-05T23:54:42.165Z,7.05
2022-11-05T23:57:08.885Z,6.71
2022-11-05T23:59:35.676Z,7.04
